South Brunswick, New Jersey
Current Conditions -  °F | °C
As of 9:53 PM on Friday 19 Dec 2014 (Local Time) from KTTN Reporting Station
Broken Clouds Broken Clouds  
Wind Chill: 25°   Ceiling: 2900
Heat Index: 31°   Visibility: 10mi
Dew Point: 19°   Wind: 6mph
Humidity: 61%   Direction: 340°NNW
Pressure: 30.18"   Gusts: NA
Location:  40.3793°N, 74.4959°W
Report Text: KTTN 200253Z AUTO 34005KT 10SM BKN029 M01/M07 A3018 RMK AO2 SLP215 T10061072 53005
Loading
Personal Weather Stations






























Interactive Weather Map New forecast layout! Learn more

10-Day Weather Forecast

Advertisements
Track Severe Weather on mobile